Whale Point, California Weather observations

Data are for observation ending at time listed.
 Day   Time    Ave.   Ave.  Ave.  Vector   Max.   Stn.    Total    Solar   Ave.  
  of    of     Air    Rel.  Wind   Wind    Wind   Baro.  Precip.   Rad.    Soil  
Year   Day     Temp.  Hum.  Speed  Dir.    Gust   Pres.                    Temp. 
2016   (PST)    F      %     mph   deg.    mph     mb.     in.     W/m2     F   
------------------------------------------------------------------------------
  43    7:40   67.5    25    1.8    78      5.3   999.3    0.00      35    58.4
  43    7:50   65.5    28    0.5    24      1.5   999.7    0.00      46    58.4
  43    8:00   64.0    31    1.7   118      4.8   999.7    0.00      59    58.4
  43    8:10   66.4    28    1.8    87      6.4   999.7    0.00      74    58.3
  43    8:20   66.8    28    2.3    32      4.8   999.7    0.00      92    58.3
  43    8:30   67.3    28    0.6   166      2.0   1000.0    0.00     116    58.3
  43    8:40   67.8    28    0.3   219      1.3   1000.0    0.00     315    58.2
  43    8:50   68.2    30    0.5    44      1.5   1000.0    0.00     297    58.2
  43    9:00   68.5    32    1.3   166      2.0   1000.0    0.00     279    58.2
  43    9:10   68.3    30    1.0   360      1.9   1000.0    0.00     292    58.1
  43    9:20   67.7    28    0.7    11      1.5   1000.0    0.00     292    58.1
  43    9:30   68.3    33    1.4   151      3.4   1000.0    0.00     332    58.1
  43    9:40   66.4    46    2.2   192      5.1   1000.0    0.00     315    58.1
  43    9:50   59.6    67    3.7   168      8.3   1000.0    0.00     332    58.1
  43   10:00   60.3    65    1.7   159      4.1   1000.0    0.00     375    58.1
  43   10:10   59.6    69    2.8   166      5.4   1000.0    0.00     447    58.1
  43   10:20   59.8    69    1.8   109      4.1   1000.3    0.00     529    58.1
  43   10:30   63.4    65    0.5   274      2.3   1000.3    0.00     583    58.1
  43   10:40   64.4    64    0.9   193      2.9   1000.3    0.00     613    58.1
  43   10:50   62.0    68    3.3   181      7.2   1000.3    0.00     635    58.1
  43   11:00   63.2    57    2.7   182      4.7   1000.3    0.00     619    58.1
  43   11:10   64.9    56    3.4   205      5.1   1000.3    0.00     638    58.1
  43   11:20   64.1    51    3.7   198      5.3   1000.3    0.00     685    58.2
  43   11:30   63.3    46    3.3   207      5.1   1000.3    0.00     663    58.2
  43   11:40   65.5    39    2.5   193      5.0   1000.0    0.00     662    58.2
  43   11:50   66.8    35    3.3   190      5.7   1000.0    0.00     709    58.3
  43   12:00   67.7    33    3.7   200      6.2   1000.0    0.00     679    58.4
  43   12:10   68.0    37    3.5   210      5.2   999.7    0.00     679    58.4
  43   12:20   67.5    46    2.5   205      4.4   999.7    0.00     670    58.5
  43   12:30   66.0    59    1.9   205      3.4   999.7    0.00     688    58.6
  43   12:40   65.7    48    1.5   200      3.0   999.3    0.00     701    58.7
  43   12:50   66.7    54    1.9   184      3.1   999.0    0.00     681    58.8
  43   13:00   64.3    66    2.5   187      4.4   999.0    0.00     674    58.9
  43   13:10   63.5    67    2.3   196      7.0   998.6    0.00     621    59.0
  43   13:20   61.8    70    4.5   203      6.6   998.6    0.00     651    59.1
  43   13:30   62.1    70    2.8   190      5.3   998.6    0.00     472    59.3
  43   13:40   62.7    67    1.8   193      4.5   998.3    0.00     583    59.4
  43   13:50   65.8    59    2.9   206      5.3   998.3    0.00     589    59.5
  43   14:00   66.9    45    4.6   212      7.1   998.3    0.00     631    59.6
  43   14:10   66.7    56    3.8   205      6.7   998.3    0.00     637    59.8
  43   14:20   67.7    52    3.6   209      5.1   998.3    0.00     576    59.9
  43   14:30   68.6    45    1.7   203      3.8   998.0    0.00     526    60.0
  43   14:40   71.4    42    1.4   218      2.9   998.0    0.00     501    60.2
  43   14:50   71.2    41    2.1   225      3.4   998.0    0.00     471    60.3
  43   15:00   70.3    42    2.0   210      3.8   998.0    0.00     433    60.5
  43   15:10   68.5    53    2.3   184      5.0   998.0    0.00     327    60.6
  43   15:20   65.0    56    2.1   170      3.4   998.0    0.00     318    60.8
  43   15:30   68.5    47    2.4   171      4.3   998.0    0.00     393    60.9
  43   15:40   69.7    48    2.7   205      5.9   998.0    0.00     416    61.1
  43   15:50   68.7    49    2.7   223      5.0   998.0    0.00     368    61.2
  43   16:00   68.1    52    1.7   247      5.2   998.0    0.00     350    61.4
  43   16:10   68.6    43    1.1   346      2.2   998.0    0.00     312    61.5
  43   16:20   67.9    58    1.8   187      4.1   998.0    0.00     270    61.6
  43   16:30   67.0    60    1.4   194      3.5   998.0    0.00     229    61.8
  43   16:40   66.2    58    1.3   220      2.9   998.0    0.00     184    61.9
  43   16:50   64.1    61    1.1   244      3.6   998.0    0.00     136    62.0
  43   17:00   64.2    61    0.4   248      2.4   998.0    0.00     104    62.2
  43   17:10   64.4    61    0.8   183      2.5   998.0    0.00      83    62.3
  43   17:20   64.7    60    1.1    27      2.5   998.0    0.00      61    62.4
  43   17:30   66.5    53    0.7   144      1.8   998.0    0.00      45    62.5
  43   17:40   66.7    52    0.5   140      1.8   998.0    0.00      23    62.5
  43   17:50   64.2    57    1.2   105      2.4   998.0    0.00       5    62.6
  43   18:00   63.2    57    0.6   113      3.5   998.0    0.00       1    62.7
  43   18:10   62.1    57    0.8   318      3.6   998.0    0.00       0    62.7
  43   18:20   61.3    60    1.2   208      3.3   998.3    0.00       0    62.8
  43   18:30   61.0    60    1.0   170      4.1   998.3    0.00       0    62.8
  43   18:40   59.6    67    1.2   198      3.8   998.3    0.00       0    62.8
  43   18:50   62.7    55    2.0     5      6.6   998.3    0.00       0    62.8
  43   19:00   70.1    38    2.9    50     11.2   998.3    0.00       0    62.8
  43   19:10   70.4    38    2.3   301      6.6   998.3    0.00       0    62.8
  43   19:20   66.0    48    1.3   224      4.5   998.3    0.00       0    62.8
  43   19:30   67.3    40    3.0     9      7.7   998.3    0.00       0    62.8
  43   19:40   70.8    30    3.5    31     11.5   998.3    0.00       0    62.8
  43   19:50   68.6    42    2.3   176      7.6   998.3    0.00       0    62.7
  43   20:00   64.1    44    2.3   345     10.4   998.3    0.00       0    62.7
  43   20:10   68.4    31    1.9   216      5.1   998.3    0.00       0    62.7
  43   20:20   67.4    36    2.5   186      4.8   998.6    0.00       0    62.7
  43   20:30   66.1    37    2.2   173      4.5   998.6    0.00       0    62.6
  43   20:40   69.1    26    5.0    15     12.2   998.6    0.00       0    62.6
  43   20:50   71.2    24    5.7   359     15.3   998.3    0.00       0    62.5
  43   21:00   71.1    24    3.7   334      9.4   998.6    0.00       0    62.5
  43   21:10   70.8    25    2.8     1      9.9   998.6    0.00       0    62.5
  43   21:20   69.5    30    3.1   337     10.3   998.6    0.00       0    62.4
  43   21:30   68.5    28    3.8     0      9.3   998.6    0.00       0    62.4
  43   21:40   70.4    24    3.9   349      9.3   998.6    0.00       0    62.3
  43   21:50   68.4    29    2.2    54      5.1   999.0    0.00       0    62.3
  43   22:00   68.1    29    1.8   206      4.9   999.0    0.00       0    62.2
  43   22:10   63.8    43    2.4   183      3.9   999.0    0.00       0    62.2
  43   22:20   62.5    46    1.8   173      5.6   999.0    0.00       0    62.2
  43   22:30   62.1    47    1.1   166      3.5   999.0    0.00       0    62.1
  43   22:40   64.5    33    1.0   296      4.9   999.3    0.00       0    62.0
  43   22:50   69.1    24    1.9   206      4.7   999.3    0.00       0    62.0
  43   23:00   70.5    23    2.0   287      5.8   999.3    0.00       0    61.9
  43   23:10   68.3    28    1.5   195      6.4   999.3    0.00       0    61.9
  43   23:20   68.8    27    3.3   359      8.0   999.3    0.00       0    61.8
  43   23:30   69.9    26    2.0   336      7.1   999.3    0.00       0    61.7
  43   23:40   70.0    26    1.3   202      3.3   999.3    0.00       0    61.7
  43   23:50   68.3    29    2.7   323      8.0   999.3    0.00       0    61.6
  44    0:00   68.2    30    2.8   314      9.2   999.3    0.00       0    61.6
  44    0:10   67.9    31    1.9   304      5.0   999.3    0.00       0    61.5
  44    0:20   69.6    30    2.6   303     11.7   999.3    0.00       0    61.5
  44    0:30   65.5    36    1.9   262      5.7   999.3    0.00       0    61.4
  44    0:40   65.4    39    1.6   200      5.6   999.3    0.00       0    61.4
  44    0:50   63.6    40    1.5   276      5.2   999.3    0.00       0    61.3
  44    1:00   63.7    41    1.8   183      4.5   999.3    0.00       0    61.3
  44    1:10   63.9    38    1.0   171      3.8   999.3    0.00       0    61.2
  44    1:20   64.4    38    2.0   172      6.5   999.7    0.00       0    61.2
  44    1:30   63.8    39    2.0   156      4.6   999.7    0.00       0    61.1
  44    1:40   63.6    39    1.3    46      3.9   999.7    0.00       0    61.1
  44    1:50   64.3    37    2.1   358      4.0   999.7    0.00       0    61.0
  44    2:00   60.6    45    1.5   202      3.7   999.7    0.00       0    60.9
  44    2:10   59.7    46    1.2   133      2.6   999.7    0.00       0    60.9
  44    2:20   58.7    54    1.1    33      3.2   999.7    0.00       0    60.8
  44    2:30   57.2    60    0.9   143      3.3   999.7    0.00       0    60.8
  44    2:40   56.5    68    1.7    24      3.6   999.7    0.00       0    60.7
  44    2:50   58.2    52    2.0    24      6.7   999.3    0.00       0    60.7
  44    3:00   63.1    36    2.0   174      4.8   999.3    0.00       0    60.6
  44    3:10   64.8    32    1.7   254      5.3   999.7    0.00       0    60.5
  44    3:20   64.8    35    1.4   290      5.3   999.7    0.00       0    60.5
  44    3:30   63.4    37    2.2    45      5.6   999.7    0.00       0    60.4
  44    3:40   67.2    28    5.4    16     11.0   999.3    0.00       0    60.4
  44    3:50   69.0    26    4.0    26      7.7   999.3    0.00       0    60.3
  44    4:00   68.1    30    1.8    87      5.3   999.3    0.00       0    60.2
  44    4:10   59.3    59    1.2   202      3.3   999.3    0.00       0    60.2
  44    4:20   56.0    70    1.9   179      6.1   999.3    0.00       0    60.2
  44    4:30   55.4    73    2.6    17      5.2   999.3    0.00       0    60.2
  44    4:40   54.4    81    2.1    31      4.7   999.3    0.00       0    60.1
  44    4:50   55.1    77    2.4    84      5.6   999.7    0.00       0    60.0
  44    5:00   58.5    60    2.2   124      5.1   999.7    0.00       0    60.0
  44    5:10   61.2    51    2.0   125      4.6   999.7    0.00       0    59.9
  44    5:20   62.1    47    1.0   222      4.5   999.7    0.00       0    59.9
  44    5:30   61.6    49    1.7   138      3.8   1000.0    0.00       0    59.8
  44    5:40   58.9    55    2.0   111      4.2   1000.0    0.00       0    59.8
  44    5:50   55.9    67    1.1   200      3.8   1000.0    0.00       0    59.7
  44    6:00   54.8    70    1.6    90      3.5   1000.0    0.00       0    59.7
  44    6:10   54.9    74    2.5   228      4.5   1000.0    0.00       0    59.6
  44    6:20   54.0    81    3.4   193      7.1   1000.0    0.00       0    59.6
  44    6:30   52.9    85    1.1   207      4.1   1000.0    0.00       0    59.5
  44    6:40   53.0    84    2.1    47      8.0   1000.0    0.00       0    59.5
  44    6:50   58.8    60    3.6   155      7.5   1000.0    0.00       1    59.4
  44    7:00   55.2    72    1.3   346      5.1   1000.0    0.00       3    59.3
  44    7:10   54.2    74    0.8   359      3.4   1000.0    0.00       5    59.3
  44    7:20   53.6    77    0.9    45      3.3   1000.3    0.00       8    59.2
  44    7:30   53.4    77    1.2    62      3.7   1000.3    0.00      11    59.2

Return to Whale Point graphs page.


Western Regional Climate Center,wrcc@dri.edu